sensor_id;sensor_type;location;lat;lon;timestamp;pressure;altitude;pressure_sealevel;temperature;humidity
74778;BME280;63298;53.164;8.610;2022-10-22T00:00:15;101068.88;;;14.44;82.40
74778;BME280;63298;53.164;8.610;2022-10-22T00:02:41;101050.22;;;14.40;81.95
74778;BME280;63298;53.164;8.610;2022-10-22T00:05:08;101059.13;;;14.42;82.17
74778;BME280;63298;53.164;8.610;2022-10-22T00:07:33;101051.88;;;14.41;81.90
74778;BME280;63298;53.164;8.610;2022-10-22T00:09:59;101056.63;;;14.40;82.18
74778;BME280;63298;53.164;8.610;2022-10-22T00:12:25;101059.41;;;14.40;82.02
74778;BME280;63298;53.164;8.610;2022-10-22T00:14:50;101060.50;;;14.39;82.30
74778;BME280;63298;53.164;8.610;2022-10-22T00:17:16;101064.09;;;14.40;82.20
74778;BME280;63298;53.164;8.610;2022-10-22T00:19:41;101073.00;;;14.42;81.92
74778;BME280;63298;53.164;8.610;2022-10-22T00:22:07;101068.03;;;14.44;81.83
74778;BME280;63298;53.164;8.610;2022-10-22T00:24:33;101063.75;;;14.36;81.82
74778;BME280;63298;53.164;8.610;2022-10-22T00:26:59;101073.41;;;14.34;82.32
74778;BME280;63298;53.164;8.610;2022-10-22T00:29:25;101072.81;;;14.32;82.50
74778;BME280;63298;53.164;8.610;2022-10-22T00:31:50;101075.59;;;14.32;82.03
74778;BME280;63298;53.164;8.610;2022-10-22T00:34:17;101080.06;;;14.33;81.89
74778;BME280;63298;53.164;8.610;2022-10-22T00:36:43;101069.72;;;14.28;82.59
74778;BME280;63298;53.164;8.610;2022-10-22T00:39:09;101084.44;;;14.28;82.35
74778;BME280;63298;53.164;8.610;2022-10-22T00:41:35;101060.41;;;14.17;82.37
74778;BME280;63298;53.164;8.610;2022-10-22T00:44:02;101067.13;;;14.21;82.14
74778;BME280;63298;53.164;8.610;2022-10-22T00:46:28;101078.56;;;14.25;82.22
74778;BME280;63298;53.164;8.610;2022-10-22T00:48:56;101073.78;;;14.20;82.71
74778;BME280;63298;53.164;8.610;2022-10-22T00:51:25;101084.38;;;14.23;82.11
74778;BME280;63298;53.164;8.610;2022-10-22T00:54:00;101080.44;;;14.19;82.33
74778;BME280;63298;53.164;8.610;2022-10-22T00:56:26;101092.69;;;14.23;82.29
74778;BME280;63298;53.164;8.610;2022-10-22T00:58:55;101100.41;;;14.21;82.37
74778;BME280;63298;53.164;8.610;2022-10-22T01:01:28;101098.41;;;14.17;82.04
74778;BME280;63298;53.164;8.610;2022-10-22T01:03:54;101099.78;;;14.14;82.20
74778;BME280;63298;53.164;8.610;2022-10-22T01:06:32;101099.09;;;14.07;82.65
74778;BME280;63298;53.164;8.610;2022-10-22T01:22:41;101091.47;;;13.98;82.84
74778;BME280;63298;53.164;8.610;2022-10-22T01:28:04;101091.91;;;13.90;82.72
74778;BME280;63298;53.164;8.610;2022-10-22T01:30:35;101087.19;;;13.90;82.16
74778;BME280;63298;53.164;8.610;2022-10-22T01:33:04;101094.44;;;13.91;82.33
74778;BME280;63298;53.164;8.610;2022-10-22T01:35:33;101108.03;;;13.93;82.55
74778;BME280;63298;53.164;8.610;2022-10-22T01:38:03;101101.16;;;13.95;82.49
74778;BME280;63298;53.164;8.610;2022-10-22T01:40:31;101097.78;;;13.93;82.16
74778;BME280;63298;53.164;8.610;2022-10-22T01:43:07;101099.47;;;13.94;82.68
74778;BME280;63298;53.164;8.610;2022-10-22T01:45:35;101095.84;;;13.94;82.07
74778;BME280;63298;53.164;8.610;2022-10-22T01:54:42;101088.81;;;13.86;82.89
74778;BME280;63298;53.164;8.610;2022-10-22T01:57:32;101086.50;;;13.83;82.31
74778;BME280;63298;53.164;8.610;2022-10-22T02:05:41;101092.81;;;13.78;82.65
74778;BME280;63298;53.164;8.610;2022-10-22T02:08:14;101099.72;;;13.76;82.75
74778;BME280;63298;53.164;8.610;2022-10-22T02:10:43;101082.16;;;13.70;82.46
74778;BME280;63298;53.164;8.610;2022-10-22T02:13:38;101083.47;;;13.68;82.76
74778;BME280;63298;53.164;8.610;2022-10-22T02:16:07;101083.47;;;13.68;82.58
74778;BME280;63298;53.164;8.610;2022-10-22T02:18:34;101083.47;;;13.68;82.90
74778;BME280;63298;53.164;8.610;2022-10-22T02:21:02;101078.69;;;13.63;82.81
74778;BME280;63298;53.164;8.610;2022-10-22T02:23:27;101088.94;;;13.63;82.54
74778;BME280;63298;53.164;8.610;2022-10-22T02:26:00;101087.25;;;13.62;82.92
74778;BME280;63298;53.164;8.610;2022-10-22T02:28:42;101089.78;;;13.63;82.79
74778;BME280;63298;53.164;8.610;2022-10-22T02:31:21;101095.00;;;13.60;82.43
74778;BME280;63298;53.164;8.610;2022-10-22T02:33:52;101091.63;;;13.58;82.54
74778;BME280;63298;53.164;8.610;2022-10-22T02:36:20;101091.81;;;13.51;82.24
74778;BME280;63298;53.164;8.610;2022-10-22T02:38:48;101097.91;;;13.53;82.48
74778;BME280;63298;53.164;8.610;2022-10-22T02:41:16;101112.53;;;13.49;82.46
74778;BME280;63298;53.164;8.610;2022-10-22T02:43:49;101091.63;;;13.41;82.48
74778;BME280;63298;53.164;8.610;2022-10-22T02:46:15;101108.59;;;13.45;82.29
74778;BME280;63298;53.164;8.610;2022-10-22T02:48:41;101101.50;;;13.37;82.18
74778;BME280;63298;53.164;8.610;2022-10-22T02:51:07;101107.66;;;13.39;82.31
74778;BME280;63298;53.164;8.610;2022-10-22T02:53:33;101102.53;;;13.31;82.39
74778;BME280;63298;53.164;8.610;2022-10-22T02:55:59;101102.53;;;13.31;82.42
74778;BME280;63298;53.164;8.610;2022-10-22T02:58:26;101110.22;;;13.29;82.61
74778;BME280;63298;53.164;8.610;2022-10-22T03:00:52;101119.16;;;13.31;82.43
74778;BME280;63298;53.164;8.610;2022-10-22T03:03:20;101119.88;;;13.26;82.56
74778;BME280;63298;53.164;8.610;2022-10-22T03:05:46;101119.06;;;13.26;82.41
74778;BME280;63298;53.164;8.610;2022-10-22T03:08:12;101120.13;;;13.25;82.69
74778;BME280;63298;53.164;8.610;2022-10-22T03:10:40;101118.69;;;13.22;82.67
74778;BME280;63298;53.164;8.610;2022-10-22T03:13:06;101114.25;;;13.21;82.06
74778;BME280;63298;53.164;8.610;2022-10-22T03:15:32;101117.03;;;13.21;82.44
74778;BME280;63298;53.164;8.610;2022-10-22T03:17:59;101126.41;;;13.20;82.28
74778;BME280;63298;53.164;8.610;2022-10-22T03:20:26;101120.88;;;13.20;82.21
74778;BME280;63298;53.164;8.610;2022-10-22T03:22:52;101117.50;;;13.18;82.33
74778;BME280;63298;53.164;8.610;2022-10-22T03:25:20;101132.81;;;13.21;82.43
74778;BME280;63298;53.164;8.610;2022-10-22T03:27:48;101127.50;;;13.19;81.99
74778;BME280;63298;53.164;8.610;2022-10-22T03:30:16;101125.56;;;13.20;82.14
74778;BME280;63298;53.164;8.610;2022-10-22T03:32:42;101128.34;;;13.20;82.20
74778;BME280;63298;53.164;8.610;2022-10-22T03:35:08;101122.47;;;13.16;82.27
74778;BME280;63298;53.164;8.610;2022-10-22T03:37:35;101122.09;;;13.13;82.31
74778;BME280;63298;53.164;8.610;2022-10-22T03:40:02;101133.03;;;13.19;82.42
74778;BME280;63298;53.164;8.610;2022-10-22T03:42:29;101133.78;;;13.15;81.95
74778;BME280;63298;53.164;8.610;2022-10-22T03:44:54;101131.25;;;13.13;82.41
74778;BME280;63298;53.164;8.610;2022-10-22T03:47:20;101153.78;;;13.17;82.30
74778;BME280;63298;53.164;8.610;2022-10-22T03:49:45;101145.56;;;13.10;82.31
74778;BME280;63298;53.164;8.610;2022-10-22T03:52:13;101150.91;;;13.12;82.14
74778;BME280;63298;53.164;8.610;2022-10-22T03:54:38;101151.13;;;13.10;82.27
74778;BME280;63298;53.164;8.610;2022-10-22T03:57:05;101148.00;;;13.07;82.45
74778;BME280;63298;53.164;8.610;2022-10-22T03:59:38;101143.78;;;13.04;82.43
74778;BME280;63298;53.164;8.610;2022-10-22T04:02:04;101152.69;;;13.06;82.49
74778;BME280;63298;53.164;8.610;2022-10-22T04:04:30;101149.94;;;13.06;82.33
74778;BME280;63298;53.164;8.610;2022-10-22T04:06:56;101145.97;;;13.02;82.37
74778;BME280;63298;53.164;8.610;2022-10-22T04:09:21;101132.84;;;12.97;82.21
74778;BME280;63298;53.164;8.610;2022-10-22T04:11:47;101127.06;;;12.99;82.25
74778;BME280;63298;53.164;8.610;2022-10-22T04:14:12;101147.53;;;12.98;82.11
74778;BME280;63298;53.164;8.610;2022-10-22T04:16:39;101143.44;;;13.01;82.22
74778;BME280;63298;53.164;8.610;2022-10-22T04:19:05;101133.69;;;12.98;82.57
74778;BME280;63298;53.164;8.610;2022-10-22T04:21:31;101142.59;;;13.00;82.43
74778;BME280;63298;53.164;8.610;2022-10-22T04:23:56;101147.53;;;12.98;82.04
74778;BME280;63298;53.164;8.610;2022-10-22T04:26:22;101139.09;;;12.93;82.38
74778;BME280;63298;53.164;8.610;2022-10-22T04:28:49;101142.72;;;12.93;82.35
74778;BME280;63298;53.164;8.610;2022-10-22T04:31:17;101147.91;;;12.90;82.23
74778;BME280;63298;53.164;8.610;2022-10-22T04:33:44;101144.44;;;12.83;82.04
74778;BME280;63298;53.164;8.610;2022-10-22T04:36:12;101142.16;;;12.80;82.10
74778;BME280;63298;53.164;8.610;2022-10-22T04:38:38;101142.28;;;12.73;82.08
74778;BME280;63298;53.164;8.610;2022-10-22T04:41:13;101149.03;;;12.77;82.48
74778;BME280;63298;53.164;8.610;2022-10-22T04:43:39;101147.59;;;12.75;82.61
74778;BME280;63298;53.164;8.610;2022-10-22T04:46:05;101145.66;;;12.75;82.38
74778;BME280;63298;53.164;8.610;2022-10-22T04:48:31;101142.91;;;12.75;82.59
74778;BME280;63298;53.164;8.610;2022-10-22T04:50:57;101145.66;;;12.75;82.31
74778;BME280;63298;53.164;8.610;2022-10-22T04:53:23;101143.97;;;12.74;82.46
74778;BME280;63298;53.164;8.610;2022-10-22T04:55:48;101153.13;;;12.75;82.28
74778;BME280;63298;53.164;8.610;2022-10-22T04:58:13;101143.50;;;12.77;82.28
74778;BME280;63298;53.164;8.610;2022-10-22T05:00:39;101138.44;;;12.74;81.58
74778;BME280;63298;53.164;8.610;2022-10-22T05:03:04;101138.44;;;12.74;81.80
74778;BME280;63298;53.164;8.610;2022-10-22T05:05:31;101144.25;;;12.73;82.05
74778;BME280;63298;53.164;8.610;2022-10-22T05:07:56;101141.47;;;12.73;82.22
74778;BME280;63298;53.164;8.610;2022-10-22T05:10:22;101152.06;;;12.76;82.23
74778;BME280;63298;53.164;8.610;2022-10-22T05:12:47;101152.63;;;12.78;82.26
74778;BME280;63298;53.164;8.610;2022-10-22T05:15:13;101156.50;;;12.77;82.16
74778;BME280;63298;53.164;8.610;2022-10-22T05:17:38;101160.34;;;12.76;82.61
74778;BME280;63298;53.164;8.610;2022-10-22T05:20:04;101154.72;;;12.71;81.95
74778;BME280;63298;53.164;8.610;2022-10-22T05:22:30;101177.69;;;12.71;82.30
74778;BME280;63298;53.164;8.610;2022-10-22T05:24:55;101164.09;;;12.70;82.08
74778;BME280;63298;53.164;8.610;2022-10-22T05:27:23;101156.75;;;12.64;82.00
74778;BME280;63298;53.164;8.610;2022-10-22T05:29:48;101172.28;;;12.65;81.91
74778;BME280;63298;53.164;8.610;2022-10-22T05:32:14;101178.91;;;12.64;82.50
74778;BME280;63298;53.164;8.610;2022-10-22T05:34:39;101164.94;;;12.59;82.08
74778;BME280;63298;53.164;8.610;2022-10-22T05:37:05;101177.59;;;12.54;81.92
74778;BME280;63298;53.164;8.610;2022-10-22T05:39:30;101176.16;;;12.52;82.08
74778;BME280;63298;53.164;8.610;2022-10-22T05:41:55;101168.94;;;12.51;81.95
74778;BME280;63298;53.164;8.610;2022-10-22T05:45:11;101171.81;;;12.44;82.16
74778;BME280;63298;53.164;8.610;2022-10-22T05:47:39;101157.50;;;12.36;82.38
74778;BME280;63298;53.164;8.610;2022-10-22T05:50:05;101163.28;;;12.34;82.37
74778;BME280;63298;53.164;8.610;2022-10-22T05:52:30;101160.78;;;12.33;82.17
74778;BME280;63298;53.164;8.610;2022-10-22T05:54:55;101177.09;;;12.34;81.83
74778;BME280;63298;53.164;8.610;2022-10-22T05:57:20;101171.44;;;12.29;82.41
74778;BME280;63298;53.164;8.610;2022-10-22T05:59:46;101178.09;;;12.28;82.52
74778;BME280;63298;53.164;8.610;2022-10-22T06:02:11;101186.13;;;12.30;82.34
74778;BME280;63298;53.164;8.610;2022-10-22T06:04:37;101180.84;;;12.28;82.46
74778;BME280;63298;53.164;8.610;2022-10-22T06:07:02;101181.56;;;12.24;82.42
74778;BME280;63298;53.164;8.610;2022-10-22T06:09:30;101190.69;;;12.24;82.09
74778;BME280;63298;53.164;8.610;2022-10-22T06:11:56;101182.66;;;12.23;82.30
74778;BME280;63298;53.164;8.610;2022-10-22T06:14:22;101176.72;;;12.19;82.33
74778;BME280;63298;53.164;8.610;2022-10-22T06:16:48;101183.97;;;12.20;82.20
74778;BME280;63298;53.164;8.610;2022-10-22T06:19:15;101183.97;;;12.20;82.02
74778;BME280;63298;53.164;8.610;2022-10-22T06:21:42;101193.72;;;12.23;82.16
74778;BME280;63298;53.164;8.610;2022-10-22T06:24:09;101192.88;;;12.22;82.06
74778;BME280;63298;53.164;8.610;2022-10-22T06:27:02;101189.38;;;12.15;81.91
74778;BME280;63298;53.164;8.610;2022-10-22T06:29:27;101204.88;;;12.16;81.98
74778;BME280;63298;53.164;8.610;2022-10-22T06:31:53;101205.72;;;12.17;81.63
74778;BME280;63298;53.164;8.610;2022-10-22T06:34:19;101203.69;;;12.12;82.14
74778;BME280;63298;53.164;8.610;2022-10-22T06:36:45;101213.66;;;12.13;81.85
74778;BME280;63298;53.164;8.610;2022-10-22T06:39:12;101211.97;;;12.12;81.98
74778;BME280;63298;53.164;8.610;2022-10-22T06:41:38;101210.50;;;12.09;81.73
74778;BME280;63298;53.164;8.610;2022-10-22T06:44:03;101204.63;;;12.06;81.95
74778;BME280;63298;53.164;8.610;2022-10-22T06:46:29;101224.72;;;12.13;81.99
74778;BME280;63298;53.164;8.610;2022-10-22T06:48:58;101230.84;;;12.15;81.86
74778;BME280;63298;53.164;8.610;2022-10-22T06:51:24;101225.59;;;12.14;81.78
74778;BME280;63298;53.164;8.610;2022-10-22T06:53:50;101227.25;;;12.15;81.43
74778;BME280;63298;53.164;8.610;2022-10-22T06:56:18;101230.13;;;12.20;82.11
74778;BME280;63298;53.164;8.610;2022-10-22T06:58:46;101231.22;;;12.19;82.00
74778;BME280;63298;53.164;8.610;2022-10-22T07:01:13;101239.19;;;12.27;81.96
74778;BME280;63298;53.164;8.610;2022-10-22T07:03:40;101237.25;;;12.27;81.98
74778;BME280;63298;53.164;8.610;2022-10-22T07:06:10;101244.59;;;12.33;81.99
74778;BME280;63298;53.164;8.610;2022-10-22T07:08:36;101255.78;;;12.38;82.09
74778;BME280;63298;53.164;8.610;2022-10-22T07:13:35;101254.81;;;12.44;82.41
74778;BME280;63298;53.164;8.610;2022-10-22T07:16:01;101256.16;;;12.53;81.93
74778;BME280;63298;53.164;8.610;2022-10-22T07:18:26;101253.88;;;12.62;82.16
74778;BME280;63298;53.164;8.610;2022-10-22T07:20:52;101250.13;;;12.68;82.13
74778;BME280;63298;53.164;8.610;2022-10-22T07:23:18;101258.94;;;12.77;82.05
74778;BME280;63298;53.164;8.610;2022-10-22T07:29:00;101233.66;;;12.85;82.45
74778;BME280;63298;53.164;8.610;2022-10-22T07:31:26;101263.00;;;13.09;82.38
74778;BME280;63298;53.164;8.610;2022-10-22T07:33:51;101265.31;;;13.12;82.62
74778;BME280;63298;53.164;8.610;2022-10-22T07:36:17;101269.97;;;13.23;83.02
74778;BME280;63298;53.164;8.610;2022-10-22T07:38:44;101267.69;;;13.32;82.54
74778;BME280;63298;53.164;8.610;2022-10-22T07:41:10;101272.59;;;13.42;83.38
74778;BME280;63298;53.164;8.610;2022-10-22T07:43:35;101261.03;;;13.45;83.18
74778;BME280;63298;53.164;8.610;2022-10-22T07:46:01;101269.31;;;13.56;83.28
74778;BME280;63298;53.164;8.610;2022-10-22T07:48:26;101270.31;;;13.67;83.21
74778;BME280;63298;53.164;8.610;2022-10-22T07:50:51;101269.00;;;13.69;83.55
74778;BME280;63298;53.164;8.610;2022-10-22T07:53:17;101271.38;;;13.77;83.39
74778;BME280;63298;53.164;8.610;2022-10-22T07:55:47;101268.13;;;13.80;83.82
74778;BME280;63298;53.164;8.610;2022-10-22T07:58:12;101271.94;;;13.91;83.25
74778;BME280;63298;53.164;8.610;2022-10-22T08:00:37;101273.13;;;13.95;83.37
74778;BME280;63298;53.164;8.610;2022-10-22T08:03:03;101268.13;;;13.97;82.86
74778;BME280;63298;53.164;8.610;2022-10-22T08:05:28;101267.38;;;14.02;83.51
74778;BME280;63298;53.164;8.610;2022-10-22T08:07:54;101274.50;;;14.09;83.14
74778;BME280;63298;53.164;8.610;2022-10-22T08:10:20;101274.59;;;14.14;83.15
74778;BME280;63298;53.164;8.610;2022-10-22T08:12:45;101272.84;;;14.25;83.07
74778;BME280;63298;53.164;8.610;2022-10-22T08:15:11;101277.63;;;14.30;83.35
74778;BME280;63298;53.164;8.610;2022-10-22T08:17:37;101279.38;;;14.36;83.22
74778;BME280;63298;53.164;8.610;2022-10-22T08:20:02;101279.00;;;14.44;83.51
74778;BME280;63298;53.164;8.610;2022-10-22T08:22:28;101275.72;;;14.47;83.09
74778;BME280;63298;53.164;8.610;2022-10-22T08:24:54;101280.88;;;14.55;83.28
74778;BME280;63298;53.164;8.610;2022-10-22T08:27:19;101278.41;;;14.58;83.16
74778;BME280;63298;53.164;8.610;2022-10-22T08:29:45;101287.16;;;14.67;83.44
74778;BME280;63298;53.164;8.610;2022-10-22T08:32:11;101289.19;;;14.72;83.31
74778;BME280;63298;53.164;8.610;2022-10-22T08:34:36;101289.00;;;14.78;83.36
74778;BME280;63298;53.164;8.610;2022-10-22T08:37:02;101272.19;;;14.85;83.16
74778;BME280;63298;53.164;8.610;2022-10-22T08:39:27;101281.47;;;14.95;83.23
74778;BME280;63298;53.164;8.610;2022-10-22T08:44:38;101288.19;;;15.16;83.08
74778;BME280;63298;53.164;8.610;2022-10-22T08:47:18;101293.31;;;15.24;83.47
74778;BME280;63298;53.164;8.610;2022-10-22T08:49:45;101290.25;;;15.26;83.21
74778;BME280;63298;53.164;8.610;2022-10-22T08:52:13;101298.97;;;15.34;83.42
74778;BME280;63298;53.164;8.610;2022-10-22T08:54:45;101295.97;;;15.36;84.40
74778;BME280;63298;53.164;8.610;2022-10-22T08:57:54;101286.78;;;15.35;83.50
74778;BME280;63298;53.164;8.610;2022-10-22T09:00:31;101296.94;;;15.46;83.47
74778;BME280;63298;53.164;8.610;2022-10-22T09:03:22;101300.31;;;15.48;83.08
74778;BME280;63298;53.164;8.610;2022-10-22T09:06:11;101296.19;;;15.51;83.10
74778;BME280;63298;53.164;8.610;2022-10-22T09:08:38;101302.34;;;15.53;83.14
74778;BME280;63298;53.164;8.610;2022-10-22T09:11:36;101307.63;;;15.54;83.55
74778;BME280;63298;53.164;8.610;2022-10-22T09:14:02;101303.50;;;15.57;83.08
74778;BME280;63298;53.164;8.610;2022-10-22T09:24:23;101320.63;;;15.71;83.83
74778;BME280;63298;53.164;8.610;2022-10-22T09:26:50;101316.50;;;15.73;83.06
74778;BME280;63298;53.164;8.610;2022-10-22T09:29:19;101308.22;;;15.78;83.15
74778;BME280;63298;53.164;8.610;2022-10-22T09:31:47;101307.94;;;15.80;83.20
74778;BME280;63298;53.164;8.610;2022-10-22T09:34:14;101295.78;;;15.86;82.98
74778;BME280;63298;53.164;8.610;2022-10-22T09:36:40;101309.50;;;15.92;83.18
74778;BME280;63298;53.164;8.610;2022-10-22T09:39:21;101300.63;;;15.95;83.50
74778;BME280;63298;53.164;8.610;2022-10-22T09:41:46;101308.50;;;16.04;82.88
74778;BME280;63298;53.164;8.610;2022-10-22T09:44:12;101303.50;;;16.06;82.78
74778;BME280;63298;53.164;8.610;2022-10-22T09:46:38;101313.34;;;16.13;83.03
74778;BME280;63298;53.164;8.610;2022-10-22T09:49:09;101316.13;;;16.13;83.40
74778;BME280;63298;53.164;8.610;2022-10-22T09:51:45;101311.72;;;16.17;83.55
74778;BME280;63298;53.164;8.610;2022-10-22T09:54:18;101320.19;;;16.27;82.87
74778;BME280;63298;53.164;8.610;2022-10-22T09:59:25;101330.34;;;16.43;82.53
74778;BME280;63298;53.164;8.610;2022-10-22T10:02:01;101316.69;;;16.42;82.72
74778;BME280;63298;53.164;8.610;2022-10-22T10:04:27;101319.25;;;16.49;82.36
74778;BME280;63298;53.164;8.610;2022-10-22T10:06:54;101326.25;;;16.51;82.30
74778;BME280;63298;53.164;8.610;2022-10-22T10:09:22;101326.81;;;16.53;82.40
74778;BME280;63298;53.164;8.610;2022-10-22T10:14:19;101343.59;;;16.58;82.24
74778;BME280;63298;53.164;8.610;2022-10-22T10:19:29;101342.03;;;16.67;82.35
74778;BME280;63298;53.164;8.610;2022-10-22T10:22:24;101340.41;;;16.71;82.45
74778;BME280;63298;53.164;8.610;2022-10-22T10:28:18;101344.41;;;16.86;81.61
74778;BME280;63298;53.164;8.610;2022-10-22T10:33:56;101341.50;;;17.07;81.60
74778;BME280;63298;53.164;8.610;2022-10-22T10:36:44;101337.94;;;17.17;81.30
74778;BME280;63298;53.164;8.610;2022-10-22T10:39:17;101339.66;;;17.23;81.10
74778;BME280;63298;53.164;8.610;2022-10-22T10:42:14;101342.19;;;17.24;81.21
74778;BME280;63298;53.164;8.610;2022-10-22T10:45:02;101349.75;;;17.29;80.04
74778;BME280;63298;53.164;8.610;2022-10-22T10:47:51;101352.56;;;17.34;79.96
74778;BME280;63298;53.164;8.610;2022-10-22T10:56:35;101342.22;;;17.77;78.13
74778;BME280;63298;53.164;8.610;2022-10-22T11:06:54;101352.16;;;18.25;78.36
74778;BME280;63298;53.164;8.610;2022-10-22T11:09:29;101348.81;;;18.33;77.41
74778;BME280;63298;53.164;8.610;2022-10-22T11:12:03;101343.53;;;18.51;77.48
74778;BME280;63298;53.164;8.610;2022-10-22T11:15:08;101348.63;;;18.65;76.49
74778;BME280;63298;53.164;8.610;2022-10-22T11:17:41;101357.00;;;18.80;75.34
74778;BME280;63298;53.164;8.610;2022-10-22T11:22:43;101353.41;;;18.84;75.95
74778;BME280;63298;53.164;8.610;2022-10-22T11:27:41;101360.94;;;18.94;75.70
74778;BME280;63298;53.164;8.610;2022-10-22T11:30:11;101362.31;;;18.96;75.71
74778;BME280;63298;53.164;8.610;2022-10-22T11:32:38;101352.81;;;18.82;75.54
74778;BME280;63298;53.164;8.610;2022-10-22T11:35:10;101355.88;;;18.81;75.09
74778;BME280;63298;53.164;8.610;2022-10-22T11:37:37;101365.38;;;18.90;75.86
74778;BME280;63298;53.164;8.610;2022-10-22T11:40:13;101367.38;;;18.84;74.51
74778;BME280;63298;53.164;8.610;2022-10-22T11:42:44;101352.81;;;18.82;75.31
74778;BME280;63298;53.164;8.610;2022-10-22T11:48:06;101367.06;;;18.81;74.68
74778;BME280;63298;53.164;8.610;2022-10-22T11:55:51;101368.75;;;18.87;74.82
74778;BME280;63298;53.164;8.610;2022-10-22T11:58:29;101372.38;;;18.77;73.74
74778;BME280;63298;53.164;8.610;2022-10-22T12:01:26;101375.75;;;18.84;73.46
74778;BME280;63298;53.164;8.610;2022-10-22T12:04:19;101364.00;;;18.72;73.66
74778;BME280;63298;53.164;8.610;2022-10-22T12:06:55;101371.28;;;18.73;74.53
74778;BME280;63298;53.164;8.610;2022-10-22T12:09:23;101371.53;;;18.72;74.34
74778;BME280;63298;53.164;8.610;2022-10-22T12:11:49;101374.31;;;18.62;74.51
74778;BME280;63298;53.164;8.610;2022-10-22T12:14:26;101379.88;;;18.51;73.32
74778;BME280;63298;53.164;8.610;2022-10-22T12:16:57;101368.19;;;18.54;73.97
74778;BME280;63298;53.164;8.610;2022-10-22T12:19:30;101374.31;;;18.62;73.79
74778;BME280;63298;53.164;8.610;2022-10-22T12:22:27;101377.38;;;18.60;73.94
74778;BME280;63298;53.164;8.610;2022-10-22T12:24:53;101360.34;;;18.57;74.30
74778;BME280;63298;53.164;8.610;2022-10-22T12:27:22;101360.63;;;18.60;74.36
74778;BME280;63298;53.164;8.610;2022-10-22T12:29:48;101368.19;;;18.75;74.34
74778;BME280;63298;53.164;8.610;2022-10-22T12:32:14;101366.22;;;18.85;73.71
74778;BME280;63298;53.164;8.610;2022-10-22T12:34:51;101382.75;;;18.92;72.74
74778;BME280;63298;53.164;8.610;2022-10-22T12:37:18;101363.16;;;18.92;73.17
74778;BME280;63298;53.164;8.610;2022-10-22T12:39:44;101369.88;;;18.96;73.25
74778;BME280;63298;53.164;8.610;2022-10-22T12:42:13;101367.66;;;19.03;73.17
74778;BME280;63298;53.164;8.610;2022-10-22T12:44:40;101368.19;;;19.05;72.24
74778;BME280;63298;53.164;8.610;2022-10-22T12:47:14;101367.63;;;19.08;70.95
74778;BME280;63298;53.164;8.610;2022-10-22T12:49:43;101362.03;;;19.03;72.13
74778;BME280;63298;53.164;8.610;2022-10-22T12:52:17;101348.59;;;18.90;71.57
74778;BME280;63298;53.164;8.610;2022-10-22T12:54:45;101351.97;;;18.82;72.60
74778;BME280;63298;53.164;8.610;2022-10-22T12:57:16;101364.56;;;18.79;72.68
74778;BME280;63298;53.164;8.610;2022-10-22T12:59:45;101362.28;;;18.56;72.74
74778;BME280;63298;53.164;8.610;2022-10-22T13:04:41;101374.56;;;18.45;73.12
74778;BME280;63298;53.164;8.610;2022-10-22T13:09:47;101375.06;;;18.27;73.38
74778;BME280;63298;53.164;8.610;2022-10-22T13:12:34;101382.88;;;18.20;73.63
74778;BME280;63298;53.164;8.610;2022-10-22T13:15:38;101388.19;;;18.26;74.15
74778;BME280;63298;53.164;8.610;2022-10-22T13:18:12;101369.19;;;18.28;73.74
74778;BME280;63298;53.164;8.610;2022-10-22T13:20:59;101384.56;;;18.36;74.47
74778;BME280;63298;53.164;8.610;2022-10-22T13:23:27;101391.31;;;18.40;74.36
74778;BME280;63298;53.164;8.610;2022-10-22T13:26:02;101389.91;;;18.47;74.48
74778;BME280;63298;53.164;8.610;2022-10-22T13:28:30;101384.31;;;18.42;74.58
74778;BME280;63298;53.164;8.610;2022-10-22T13:31:14;101383.75;;;18.45;74.47
74778;BME280;63298;53.164;8.610;2022-10-22T13:33:44;101384.66;;;18.56;74.47
74778;BME280;63298;53.164;8.610;2022-10-22T13:36:14;101393.34;;;18.60;74.54
74778;BME280;63298;53.164;8.610;2022-10-22T13:38:40;101390.81;;;18.58;74.48
74778;BME280;63298;53.164;8.610;2022-10-22T13:41:18;101390.75;;;18.43;74.16
74778;BME280;63298;53.164;8.610;2022-10-22T13:43:44;101392.09;;;18.35;74.54
74778;BME280;63298;53.164;8.610;2022-10-22T13:46:09;101403.84;;;18.32;74.51
74778;BME280;63298;53.164;8.610;2022-10-22T13:48:35;101405.50;;;18.23;74.76
74778;BME280;63298;53.164;8.610;2022-10-22T13:51:00;101400.50;;;18.25;74.97
74778;BME280;63298;53.164;8.610;2022-10-22T13:53:27;101398.81;;;18.29;74.73
74778;BME280;63298;53.164;8.610;2022-10-22T13:55:53;101393.78;;;18.31;75.03
74778;BME280;63298;53.164;8.610;2022-10-22T13:58:21;101398.25;;;18.32;74.93
74778;BME280;63298;53.164;8.610;2022-10-22T14:00:50;101387.34;;;18.26;74.74
74778;BME280;63298;53.164;8.610;2022-10-22T14:03:19;101404.41;;;18.29;74.79
74778;BME280;63298;53.164;8.610;2022-10-22T14:05:46;101403.53;;;18.19;74.95
74778;BME280;63298;53.164;8.610;2022-10-22T14:08:15;101408.84;;;18.15;75.06
74778;BME280;63298;53.164;8.610;2022-10-22T14:10:42;101402.06;;;18.06;75.06
74778;BME280;63298;53.164;8.610;2022-10-22T14:13:12;101418.81;;;18.06;75.25
74778;BME280;63298;53.164;8.610;2022-10-22T14:15:39;101414.31;;;17.95;75.52
74778;BME280;63298;53.164;8.610;2022-10-22T14:18:05;101416.56;;;17.98;75.51
74778;BME280;63298;53.164;8.610;2022-10-22T14:20:36;101424.09;;;17.97;75.53
74778;BME280;63298;53.164;8.610;2022-10-22T14:23:19;101416.50;;;17.88;75.45
74778;BME280;63298;53.164;8.610;2022-10-22T14:25:45;101419.91;;;17.95;75.64
74778;BME280;63298;53.164;8.610;2022-10-22T14:28:11;101426.03;;;17.92;75.73
74778;BME280;63298;53.164;8.610;2022-10-22T14:30:37;101426.53;;;17.79;75.76
74778;BME280;63298;53.164;8.610;2022-10-22T14:33:15;101430.13;;;17.74;75.92